Time;durP1;ratioP1;P1;durP2;ratioP2;P2;SDS_P1;SDS_P2;PMS_P1;PMS_P2;Temp;Humidity;BMP_temperature;BMP_pressure;BME280_temperature;BME280_humidity;BME280_pressure;Samples;Min_cycle;Max_cycle;Signal;HPM_P1;HPM_P2
2024/04/14 00:02:19;;;;;;;13.80;7.40;;;;;;;17.74;48.43;100273.31;107838;1254;71620;-66
2024/04/14 00:04:52;;;;;;;13.20;7.80;;;;;;;17.69;48.24;100269.59;107894;1254;60847;-65
2024/04/14 00:07:21;;;;;;;15.00;7.70;;;;;;;17.85;47.92;100272.30;107889;1256;60423;-66
2024/04/14 00:09:48;;;;;;;31.70;8.40;;;;;;;17.77;47.91;100269.96;107828;1254;71615;-66
2024/04/14 00:12:16;;;;;;;20.80;8.80;;;;;;;17.76;47.83;100270.55;107662;1254;71370;-66
2024/04/14 00:14:43;;;;;;;15.00;8.00;;;;;;;17.60;48.03;100270.73;107887;1254;72746;-65
2024/04/14 00:17:10;;;;;;;14.10;8.60;;;;;;;17.57;48.11;100268.41;108028;1255;60876;-66
2024/04/14 00:19:38;;;;;;;12.00;7.10;;;;;;;17.48;48.18;100272.55;107909;1254;60470;-66
2024/04/14 00:22:06;;;;;;;12.40;7.70;;;;;;;17.46;48.08;100271.05;107917;1254;72538;-66
2024/04/14 00:24:34;;;;;;;12.30;8.00;;;;;;;17.34;48.13;100273.41;107910;1254;70331;-66
2024/04/14 00:27:02;;;;;;;9.20;6.90;;;;;;;17.28;48.22;100273.81;107824;1256;72579;-65
2024/04/14 00:29:29;;;;;;;10.80;8.20;;;;;;;17.26;48.20;100268.45;107832;1255;60496;-66
2024/04/14 00:31:56;;;;;;;14.80;8.30;;;;;;;17.23;48.39;100274.83;107869;1254;60720;-66
2024/04/14 00:34:24;;;;;;;11.40;8.30;;;;;;;17.21;48.49;100274.58;107870;1254;73004;-66
2024/04/14 00:36:51;;;;;;;14.50;8.80;;;;;;;17.13;48.86;100286.08;107902;1255;68984;-66
2024/04/14 00:39:19;;;;;;;13.30;9.00;;;;;;;17.22;48.89;100280.56;107863;1256;72705;-66
2024/04/14 00:41:46;;;;;;;13.50;8.40;;;;;;;17.32;48.99;100279.92;107833;1254;60821;-66
2024/04/14 00:44:13;;;;;;;14.70;9.10;;;;;;;17.44;49.01;100281.15;107856;1256;60562;-66
2024/04/14 00:46:41;;;;;;;11.60;8.70;;;;;;;17.62;49.04;100281.96;107863;1254;73709;-65
2024/04/14 00:49:09;;;;;;;11.70;8.10;;;;;;;17.70;49.17;100282.52;107863;1254;68199;-66
2024/04/14 00:51:37;;;;;;;10.00;7.90;;;;;;;17.83;49.26;100279.15;107825;1255;72675;-65
2024/04/14 00:54:05;;;;;;;11.10;7.50;;;;;;;18.10;48.96;100272.83;107854;1254;60971;-66
2024/04/14 00:56:32;;;;;;;11.00;7.00;;;;;;;18.03;49.22;100264.96;107866;1254;60518;-65
2024/04/14 00:59:00;;;;;;;8.80;6.60;;;;;;;18.02;49.27;100259.48;107847;1255;73592;-66
2024/04/14 01:01:27;;;;;;;8.40;6.40;;;;;;;18.10;48.96;100260.39;107869;1254;70499;-66
2024/04/14 01:03:54;;;;;;;10.10;6.00;;;;;;;18.16;48.69;100261.75;107921;1259;72649;-66
2024/04/14 01:06:22;;;;;;;13.70;6.30;;;;;;;18.22;48.53;100257.28;107990;1256;61778;-66
2024/04/14 01:08:50;;;;;;;9.30;5.80;;;;;;;18.29;48.40;100263.23;107813;1256;60294;-66
2024/04/14 01:11:17;;;;;;;9.20;6.10;;;;;;;18.40;48.10;100263.16;107894;1260;73753;-66
2024/04/14 01:13:47;;;;;;;10.10;6.50;;;;;;;18.46;47.84;100263.85;107955;1253;70409;-66
2024/04/14 01:16:14;;;;;;;11.30;6.20;;;;;;;18.32;47.95;100261.60;107824;1256;72607;-66
2024/04/14 01:18:42;;;;;;;8.30;5.90;;;;;;;18.43;47.77;100261.77;108024;1253;61806;-66
2024/04/14 01:21:10;;;;;;;9.00;5.80;;;;;;;18.44;47.63;100260.62;108018;1253;59143;-66
2024/04/14 01:23:37;;;;;;;8.80;5.40;;;;;;;18.38;47.58;100259.73;107871;1253;73805;-66
2024/04/14 01:26:04;;;;;;;8.20;5.70;;;;;;;18.38;47.54;100260.99;108102;1253;70296;-66
2024/04/14 01:28:32;;;;;;;8.70;5.00;;;;;;;18.52;47.26;100266.49;107958;1253;71824;-66
2024/04/14 01:30:59;;;;;;;8.20;5.60;;;;;;;18.47;47.16;100273.89;107864;1253;61150;-66
2024/04/14 01:33:26;;;;;;;9.10;6.00;;;;;;;18.36;47.24;100277.13;107872;1253;60771;-65
2024/04/14 01:35:54;;;;;;;8.00;5.70;;;;;;;18.38;47.12;100269.17;108103;1253;73783;-65
2024/04/14 01:38:21;;;;;;;7.90;4.90;;;;;;;18.42;47.06;100275.32;107953;1259;70146;-65
2024/04/14 01:40:53;;;;;;;7.30;5.60;;;;;;;18.69;46.47;100274.55;107838;1253;71368;-64
2024/04/14 01:43:20;;;;;;;7.20;5.10;;;;;;;18.65;46.43;100272.15;107839;1253;60444;-65
2024/04/14 01:45:47;;;;;;;8.60;5.30;;;;;;;18.58;46.55;100268.39;107870;1253;60375;-65
2024/04/14 01:48:15;;;;;;;6.60;4.80;;;;;;;18.41;46.79;100266.52;107949;1253;73891;-66
2024/04/14 01:50:42;;;;;;;6.70;5.10;;;;;;;18.41;46.78;100266.85;107988;1253;67738;-66
2024/04/14 01:53:09;;;;;;;6.30;4.70;;;;;;;18.34;46.76;100269.66;107973;1253;71471;-66
2024/04/14 01:55:37;;;;;;;7.80;5.00;;;;;;;18.28;46.90;100271.12;107898;1253;61280;-66
2024/04/14 01:58:04;;;;;;;7.40;4.90;;;;;;;18.28;46.92;100268.77;107886;1253;61050;-66
2024/04/14 02:00:31;;;;;;;5.10;4.20;;;;;;;18.21;46.91;100265.88;108002;1253;74894;-66
2024/04/14 02:03:00;;;;;;;9.70;5.50;;;;;;;18.14;46.93;100272.34;107973;1253;68899;-65
2024/04/14 02:05:27;;;;;;;5.80;4.80;;;;;;;18.14;46.86;100272.54;107870;1253;71462;-66
2024/04/14 02:07:55;;;;;;;6.80;5.00;;;;;;;18.12;46.91;100275.71;107978;1256;61190;-65
2024/04/14 02:10:22;;;;;;;7.40;5.20;;;;;;;18.15;46.86;100281.36;107872;1253;61236;-67
2024/04/14 02:12:49;;;;;;;7.10;5.10;;;;;;;18.15;46.80;100285.84;107896;1253;73446;-66
2024/04/14 02:15:17;;;;;;;6.60;5.10;;;;;;;18.11;46.84;100275.41;108060;1253;69142;-65
2024/04/14 02:17:44;;;;;;;6.60;4.70;;;;;;;18.08;46.97;100285.25;107952;1253;71247;-65
2024/04/14 02:20:11;;;;;;;7.60;4.90;;;;;;;18.01;47.07;100282.11;107866;1258;61218;-67
2024/04/14 02:22:38;;;;;;;10.10;5.50;;;;;;;17.92;47.33;100284.33;107889;1253;61178;-65
2024/04/14 02:25:06;;;;;;;11.90;5.10;;;;;;;17.84;47.47;100286.61;107854;1253;73352;-65
2024/04/14 02:27:33;;;;;;;6.70;4.60;;;;;;;17.85;47.40;100289.20;108120;1253;69332;-67
2024/04/14 02:30:00;;;;;;;10.90;5.00;;;;;;;17.86;47.52;100284.18;108021;1253;71401;-66
2024/04/14 02:32:28;;;;;;;7.50;4.60;;;;;;;17.90;47.52;100276.66;107890;1256;60952;-66
2024/04/14 02:34:55;;;;;;;6.20;4.90;;;;;;;17.82;47.67;100281.90;107926;1253;60516;-64
2024/04/14 02:37:23;;;;;;;7.80;5.10;;;;;;;17.84;47.70;100277.52;108075;1253;74266;-67
2024/04/14 02:39:51;;;;;;;9.00;4.70;;;;;;;17.74;47.75;100282.22;108050;1253;70238;-64
2024/04/14 02:42:19;;;;;;;7.10;5.00;;;;;;;17.63;47.89;100283.80;108094;1253;71392;-64
2024/04/14 02:44:46;;;;;;;9.20;4.70;;;;;;;17.59;47.94;100286.06;108006;1252;61094;-65
2024/04/14 02:47:14;;;;;;;8.90;5.30;;;;;;;17.53;48.06;100278.27;108051;1254;61091;-65
2024/04/14 02:49:41;;;;;;;9.60;5.40;;;;;;;17.61;47.78;100272.58;108010;1253;73348;-65
2024/04/14 02:52:08;;;;;;;7.70;5.00;;;;;;;17.55;47.90;100271.73;108029;1253;69018;-65
2024/04/14 02:54:36;;;;;;;5.70;4.60;;;;;;;17.63;47.70;100268.06;108019;1256;72704;-65
2024/04/14 02:57:03;;;;;;;6.90;5.30;;;;;;;17.55;47.79;100270.34;108064;1254;61141;-66
2024/04/14 02:59:34;;;;;;;9.60;5.50;;;;;;;17.47;47.95;100269.25;108061;1253;61033;-65
2024/04/14 03:02:01;;;;;;;9.10;5.60;;;;;;;17.45;47.81;100265.63;108098;1255;73617;-65
2024/04/14 03:04:29;;;;;;;9.30;5.40;;;;;;;17.57;47.60;100259.73;108081;1253;70305;-65
2024/04/14 03:06:56;;;;;;;8.90;5.40;;;;;;;17.61;47.50;100254.86;108054;1254;72865;-66
2024/04/14 03:09:24;;;;;;;8.30;5.90;;;;;;;17.48;47.74;100252.52;108010;1253;61093;-66
2024/04/14 03:11:51;;;;;;;7.80;5.60;;;;;;;17.48;47.71;100250.55;107912;1252;61071;-66
2024/04/14 03:14:19;;;;;;;7.80;5.50;;;;;;;17.55;47.41;100249.73;108045;1253;73374;-66
2024/04/14 03:16:47;;;;;;;9.00;6.60;;;;;;;17.52;47.50;100249.94;108049;1253;69105;-64
2024/04/14 03:19:15;;;;;;;7.80;5.50;;;;;;;17.50;47.48;100258.95;108091;1254;71402;-65
2024/04/14 03:21:42;;;;;;;7.90;5.40;;;;;;;17.46;47.51;100257.94;108034;1254;61222;-65
2024/04/14 03:24:11;;;;;;;8.40;5.70;;;;;;;17.34;47.67;100259.40;108036;1258;61047;-66
2024/04/14 03:26:38;;;;;;;8.20;6.10;;;;;;;17.28;47.84;100260.48;108088;1253;74699;-65
2024/04/14 03:30:51;;;;;;;8.70;5.90;;;;;;;17.17;49.32;100260.98;104969;1289;600966;-66
2024/04/14 03:33:19;;;;;;;9.10;6.70;;;;;;;18.93;44.95;100259.76;107343;1263;60870;-64
2024/04/14 03:35:46;;;;;;;9.50;6.00;;;;;;;18.82;45.08;100259.96;107293;1264;59968;-67
2024/04/14 03:38:13;;;;;;;10.80;5.90;;;;;;;18.44;45.72;100259.13;107299;1263;72796;-66
2024/04/14 03:40:40;;;;;;;11.70;7.00;;;;;;;18.33;46.00;100257.06;107208;1266;68620;-66
2024/04/14 03:43:08;;;;;;;9.20;6.00;;;;;;;18.26;45.89;100255.56;107170;1270;72419;-66
2024/04/14 03:45:40;;;;;;;12.20;6.80;;;;;;;17.96;46.53;100256.89;107029;1264;390002;-66
2024/04/14 03:48:09;;;;;;;8.90;6.70;;;;;;;17.94;46.77;100251.85;107411;1262;59317;-66
2024/04/14 03:50:36;;;;;;;8.30;6.10;;;;;;;17.98;46.98;100251.93;107365;1264;71137;-65
2024/04/14 03:53:04;;;;;;;9.30;6.60;;;;;;;18.05;46.96;100256.44;107330;1262;70352;-66
2024/04/14 03:55:31;;;;;;;9.60;6.20;;;;;;;17.96;46.96;100253.87;108115;1254;72492;-66
2024/04/14 03:57:59;;;;;;;8.70;6.40;;;;;;;17.87;47.14;100257.46;108089;1251;60836;-67
2024/04/14 04:00:26;;;;;;;9.20;5.90;;;;;;;17.88;47.21;100258.83;108128;1251;62262;-66
2024/04/14 04:02:54;;;;;;;9.10;5.90;;;;;;;17.86;47.13;100257.70;108133;1251;72678;-66
2024/04/14 04:05:21;;;;;;;9.60;6.20;;;;;;;18.09;47.27;100248.90;108181;1251;70023;-66
2024/04/14 04:07:48;;;;;;;10.80;5.30;;;;;;;18.59;47.20;100247.66;108114;1251;72486;-66
2024/04/14 04:10:16;;;;;;;8.90;5.80;;;;;;;19.18;46.31;100241.11;108090;1254;61607;-67
2024/04/14 04:12:45;;;;;;;7.40;4.60;;;;;;;19.51;45.65;100241.02;108096;1251;60248;-66
2024/04/14 04:15:13;;;;;;;7.40;4.80;;;;;;;19.97;44.89;100245.05;108095;1251;73907;-63
2024/04/14 04:17:40;;;;;;;7.00;4.40;;;;;;;20.63;43.90;100251.10;108115;1251;70380;-65
2024/04/14 04:20:08;;;;;;;5.80;3.80;;;;;;;21.23;42.88;100256.78;108084;1253;70377;-67
2024/04/14 04:22:36;;;;;;;6.10;4.00;;;;;;;21.75;41.28;100249.41;108175;1251;62845;-69
2024/04/14 04:25:03;;;;;;;5.90;3.70;;;;;;;22.02;40.54;100252.74;108100;1251;60284;-67
2024/04/14 04:27:31;;;;;;;5.90;3.70;;;;;;;22.59;39.29;100248.33;108098;1253;72550;-67
2024/04/14 04:29:58;;;;;;;4.80;3.90;;;;;;;22.96;38.31;100251.76;108146;1251;68700;-65
2024/04/14 04:32:25;;;;;;;3.70;2.90;;;;;;;23.38;37.82;100247.93;108087;1259;72708;-67
2024/04/14 04:34:53;;;;;;;3.40;3.10;;;;;;;23.95;36.99;100245.27;108139;1251;62182;-66
2024/04/14 04:37:20;;;;;;;3.90;2.60;;;;;;;24.51;35.68;100240.02;108147;1251;60325;-67
2024/04/14 04:39:47;;;;;;;5.10;3.00;;;;;;;24.90;34.16;100241.69;108108;1251;73807;-67
2024/04/14 04:42:15;;;;;;;4.10;2.40;;;;;;;25.27;33.48;100237.46;108001;1253;69908;-67
2024/04/14 04:44:42;;;;;;;7.30;2.50;;;;;;;25.54;33.24;100229.21;108105;1254;72595;-66
2024/04/14 04:47:09;;;;;;;4.60;2.40;;;;;;;25.90;32.83;100224.81;108097;1257;60676;-66
2024/04/14 04:49:37;;;;;;;3.20;2.30;;;;;;;26.43;31.50;100226.64;108149;1253;61149;-67
2024/04/14 04:52:05;;;;;;;3.20;2.40;;;;;;;26.46;31.05;100225.96;108114;1252;73823;-68
2024/04/14 04:54:32;;;;;;;4.30;2.10;;;;;;;26.54;30.45;100226.85;108142;1254;70202;-67
2024/04/14 04:56:59;;;;;;;3.50;1.80;;;;;;;26.50;30.75;100221.07;108115;1253;71386;-66
2024/04/14 04:59:27;;;;;;;2.30;2.00;;;;;;;26.75;30.02;100214.61;108093;1254;60634;-67
2024/04/14 05:01:54;;;;;;;2.50;1.60;;;;;;;27.01;29.92;100207.36;108131;1254;60418;-67
2024/04/14 05:04:21;;;;;;;3.00;1.80;;;;;;;27.36;29.55;100208.52;108132;1254;73859;-66
2024/04/14 05:06:49;;;;;;;2.60;1.50;;;;;;;27.67;28.74;100210.40;108128;1253;68977;-66
2024/04/14 05:09:16;;;;;;;2.90;1.60;;;;;;;27.96;28.10;100207.66;108133;1253;72720;-67
2024/04/14 05:11:43;;;;;;;2.20;1.40;;;;;;;28.32;28.09;100205.77;108156;1257;60303;-67
2024/04/14 05:14:11;;;;;;;2.30;1.40;;;;;;;28.71;27.42;100201.59;108115;1253;60268;-68
2024/04/14 05:16:38;;;;;;;3.90;1.40;;;;;;;28.76;26.82;100195.77;108033;1254;72534;-67
2024/04/14 05:19:05;;;;;;;2.10;1.40;;;;;;;28.83;26.59;100196.85;108086;1253;68845;-66
2024/04/14 05:21:33;;;;;;;2.70;1.30;;;;;;;28.71;26.64;100194.40;108048;1253;71440;-67
2024/04/14 05:24:00;;;;;;;2.40;1.50;;;;;;;28.61;26.60;100192.00;108040;1254;60308;-66
2024/04/14 05:26:28;;;;;;;1.80;1.20;;;;;;;28.47;26.45;100189.26;108115;1251;60857;-67
2024/04/14 05:28:55;;;;;;;2.00;1.30;;;;;;;28.33;26.76;100187.05;108056;1254;73905;-67
2024/04/14 05:31:24;;;;;;;2.10;1.10;;;;;;;28.47;26.93;100193.79;108050;1254;70139;-66
2024/04/14 05:33:51;;;;;;;2.30;1.20;;;;;;;28.97;26.81;100198.34;107976;1254;73105;-66
2024/04/14 05:36:20;;;;;;;4.50;1.50;;;;;;;29.23;26.31;100195.75;107975;1259;60687;-66
2024/04/14 05:38:50;;;;;;;3.90;1.40;;;;;;;29.48;25.48;100189.92;107963;1253;60656;-66
2024/04/14 05:41:17;;;;;;;2.50;1.10;;;;;;;29.53;25.51;100188.88;107987;1254;73877;-67
2024/04/14 05:43:45;;;;;;;2.30;1.40;;;;;;;29.78;25.64;100183.72;107967;1253;70549;-65
2024/04/14 05:46:12;;;;;;;1.90;1.20;;;;;;;30.03;24.83;100180.11;108029;1254;70479;-68
2024/04/14 05:48:39;;;;;;;2.70;1.30;;;;;;;30.10;24.38;100176.19;108011;1254;60337;-65
2024/04/14 05:51:07;;;;;;;2.90;1.10;;;;;;;29.93;24.21;100173.27;108044;1253;60190;-67
2024/04/14 05:53:35;;;;;;;2.40;1.40;;;;;;;29.49;24.34;100177.67;108066;1254;71905;-67
2024/04/14 05:56:04;;;;;;;2.60;1.30;;;;;;;29.27;24.76;100180.02;108034;1254;70403;-68
2024/04/14 05:58:32;;;;;;;2.70;1.30;;;;;;;29.43;24.67;100176.57;107942;1257;71338;-67
2024/04/14 06:01:05;;;;;;;2.80;1.30;;;;;;;29.66;24.83;100176.67;108045;1255;60328;-67
2024/04/14 06:03:32;;;;;;;1.90;1.20;;;;;;;29.78;24.28;100174.84;108047;1254;60319;-68
2024/04/14 06:06:00;;;;;;;1.90;0.80;;;;;;;29.99;24.12;100176.45;108064;1254;72464;-68
2024/04/14 06:08:27;;;;;;;1.90;0.80;;;;;;;29.64;23.73;100181.52;108100;1254;68860;-66
2024/04/14 06:10:55;;;;;;;1.20;0.90;;;;;;;29.74;24.04;100184.52;108090;1254;72638;-67
2024/04/14 06:13:23;;;;;;;3.70;1.10;;;;;;;29.98;23.83;100183.33;108040;1254;60226;-67
2024/04/14 06:15:51;;;;;;;3.40;1.00;;;;;;;30.24;23.84;100180.33;108067;1254;60129;-67
2024/04/14 06:18:18;;;;;;;2.90;1.00;;;;;;;30.40;23.60;100176.60;107979;1259;73788;-65
2024/04/14 06:20:46;;;;;;;2.00;1.10;;;;;;;30.48;23.34;100175.46;108058;1253;69991;-66
2024/04/14 06:23:14;;;;;;;3.00;1.30;;;;;;;30.13;23.76;100175.66;107978;1254;71950;-66
2024/04/14 06:25:46;;;;;;;2.80;1.10;;;;;;;29.59;24.41;100179.21;108128;1254;60388;-67
2024/04/14 06:28:13;;;;;;;3.10;1.20;;;;;;;29.34;24.77;100178.67;108044;1254;59558;-67
2024/04/14 06:30:40;;;;;;;2.30;1.20;;;;;;;29.51;24.68;100177.42;108121;1254;73835;-67
2024/04/14 06:33:08;;;;;;;3.90;1.50;;;;;;;29.41;24.65;100179.86;108142;1254;70634;-66
2024/04/14 06:35:37;;;;;;;3.10;1.50;;;;;;;29.14;25.08;100178.54;108087;1254;72626;-67
2024/04/14 06:38:06;;;;;;;3.50;1.70;;;;;;;29.01;25.30;100182.39;108128;1253;60266;-67
2024/04/14 06:40:33;;;;;;;4.10;1.60;;;;;;;28.83;25.78;100175.88;108137;1254;60329;-68
2024/04/14 06:43:00;;;;;;;3.50;1.60;;;;;;;28.69;25.82;100174.55;108110;1254;74254;-67
2024/04/14 06:45:28;;;;;;;3.40;1.70;;;;;;;28.65;26.07;100169.60;108115;1256;69631;-68
2024/04/14 06:47:55;;;;;;;4.20;1.60;;;;;;;28.44;26.17;100169.59;108117;1254;72989;-68
2024/04/14 06:50:23;;;;;;;4.10;1.70;;;;;;;28.28;26.18;100159.41;108198;1253;60444;-68
2024/04/14 06:52:50;;;;;;;2.90;1.70;;;;;;;28.28;26.48;100163.23;108132;1254;60300;-67
2024/04/14 06:55:18;;;;;;;3.90;2.00;;;;;;;28.41;26.34;100164.06;108144;1254;73914;-67
2024/04/14 06:57:46;;;;;;;2.40;1.70;;;;;;;28.67;26.35;100162.67;108118;1253;69945;-67
2024/04/14 07:00:13;;;;;;;3.80;2.00;;;;;;;28.82;26.13;100157.02;108114;1252;71239;-67
2024/04/14 07:02:41;;;;;;;3.40;2.00;;;;;;;28.41;26.18;100152.05;108141;1254;60375;-67
2024/04/14 07:05:08;;;;;;;3.40;2.00;;;;;;;28.46;26.36;100156.92;108157;1253;60164;-67
2024/04/14 07:07:35;;;;;;;7.00;2.40;;;;;;;28.50;26.55;100153.41;108113;1253;72804;-67
2024/04/14 07:10:03;;;;;;;4.50;1.80;;;;;;;28.68;26.41;100156.02;108116;1253;71294;-67
2024/04/14 07:12:31;;;;;;;5.40;2.10;;;;;;;28.83;26.19;100153.45;108169;1253;72767;-66
2024/04/14 07:14:59;;;;;;;4.30;2.10;;;;;;;28.54;26.38;100156.85;108098;1254;59933;-67
2024/04/14 07:17:28;;;;;;;3.50;2.20;;;;;;;28.31;26.53;100153.34;108131;1252;60399;-67
2024/04/14 07:19:56;;;;;;;3.20;2.10;;;;;;;28.30;26.92;100155.95;108188;1252;73940;-67
2024/04/14 07:22:23;;;;;;;4.40;1.90;;;;;;;28.23;26.68;100148.98;108045;1254;70513;-67
2024/04/14 07:24:51;;;;;;;4.50;1.90;;;;;;;28.29;26.80;100146.51;108140;1253;71803;-67
2024/04/14 07:27:18;;;;;;;11.70;2.20;;;;;;;28.38;26.89;100146.80;108148;1254;60276;-67
2024/04/14 07:29:46;;;;;;;3.20;2.10;;;;;;;28.39;26.87;100144.29;108146;1256;60312;-67
2024/04/14 07:32:13;;;;;;;4.10;1.90;;;;;;;28.33;26.64;100137.43;108119;1252;74083;-67
2024/04/14 07:34:40;;;;;;;5.90;2.30;;;;;;;28.19;26.86;100136.57;108167;1254;70350;-67
2024/04/14 07:37:08;;;;;;;4.10;1.70;;;;;;;28.24;26.88;100132.48;108142;1252;70405;-67
2024/04/14 07:39:35;;;;;;;5.00;1.80;;;;;;;28.39;26.70;100130.45;108071;1254;61269;-68
2024/04/14 07:42:05;;;;;;;6.90;2.20;;;;;;;28.57;26.52;100133.11;108149;1254;61283;-67
2024/04/14 07:44:32;;;;;;;4.20;2.00;;;;;;;28.56;27.03;100134.67;108194;1252;74881;-68
2024/04/14 07:46:59;;;;;;;3.20;1.90;;;;;;;28.65;26.62;100132.38;108091;1254;70135;-67
2024/04/14 07:49:27;;;;;;;3.40;1.70;;;;;;;28.76;26.55;100128.60;108119;1253;72818;-67
2024/04/14 07:51:54;;;;;;;4.30;1.80;;;;;;;28.99;26.43;100123.91;108208;1254;61110;-67
2024/04/14 07:54:22;;;;;;;2.50;2.10;;;;;;;29.30;25.98;100119.63;108077;1253;61090;-67
2024/04/14 07:56:50;;;;;;;6.90;2.30;;;;;;;29.84;25.89;100108.66;108162;1252;73731;-67
2024/04/14 07:59:17;;;;;;;3.80;2.30;;;;;;;30.42;25.32;100109.50;108144;1258;70561;-67
2024/04/14 08:01:44;;;;;;;6.10;2.10;;;;;;;30.61;24.75;100113.73;108123;1253;71842;-67
2024/04/14 08:04:12;;;;;;;4.20;1.90;;;;;;;30.53;24.68;100102.79;108169;1254;61119;-66
2024/04/14 08:06:39;;;;;;;4.30;2.00;;;;;;;30.84;24.54;100094.85;108136;1254;61243;-67
2024/04/14 08:09:07;;;;;;;2.90;1.80;;;;;;;31.35;24.13;100089.78;108201;1253;75197;-67
2024/04/14 08:11:34;;;;;;;2.10;1.50;;;;;;;31.55;23.51;100087.75;108117;1254;69613;-67
2024/04/14 08:14:01;;;;;;;7.70;2.40;;;;;;;31.49;23.43;100089.98;108155;1253;71592;-67
2024/04/14 08:16:29;;;;;;;3.00;2.00;;;;;;;31.42;23.44;100088.48;108193;1254;61090;-68
2024/04/14 08:18:56;;;;;;;6.20;2.30;;;;;;;31.64;23.47;100088.84;108125;1252;61121;-67
2024/04/14 08:21:23;;;;;;;3.10;2.00;;;;;;;31.70;23.40;100085.54;108165;1253;74797;-67
2024/04/14 08:23:51;;;;;;;3.80;1.60;;;;;;;31.78;23.45;100084.48;108170;1254;68604;-68
2024/04/14 08:26:18;;;;;;;5.90;2.30;;;;;;;31.80;23.14;100087.27;108143;1254;71713;-67
2024/04/14 08:28:45;;;;;;;6.30;2.20;;;;;;;31.72;23.06;100081.21;108102;1254;61199;-67
2024/04/14 08:31:13;;;;;;;3.00;2.00;;;;;;;31.21;23.47;100065.02;108210;1256;61090;-67
2024/04/14 08:33:40;;;;;;;4.20;2.20;;;;;;;31.21;23.66;100063.39;108142;1252;74638;-67
2024/04/14 08:36:09;;;;;;;4.20;2.40;;;;;;;31.23;23.88;100060.73;108100;1256;69308;-67
2024/04/14 08:38:37;;;;;;;3.60;2.10;;;;;;;31.21;24.01;100056.11;108118;1254;73312;-67
2024/04/14 08:41:04;;;;;;;6.10;2.30;;;;;;;31.25;23.96;100053.89;108124;1254;62383;-67
2024/04/14 08:43:31;;;;;;;4.70;2.30;;;;;;;31.25;23.87;100055.61;108161;1254;61078;-68
2024/04/14 08:46:03;;;;;;;4.30;2.10;;;;;;;31.18;23.69;100051.05;108160;1254;74711;-67
2024/04/14 08:48:32;;;;;;;4.90;2.30;;;;;;;31.30;23.73;100048.30;108027;1253;69749;-67
2024/04/14 08:50:59;;;;;;;7.20;2.20;;;;;;;31.39;23.56;100046.63;108120;1254;71236;-67
2024/04/14 08:53:26;;;;;;;4.10;2.10;;;;;;;31.49;23.37;100043.20;108151;1254;61118;-67
2024/04/14 08:55:54;;;;;;;3.30;2.00;;;;;;;31.63;23.26;100045.58;108100;1254;61110;-67
2024/04/14 08:58:21;;;;;;;3.90;2.00;;;;;;;31.71;23.27;100039.11;108135;1254;74652;-67
2024/04/14 09:00:52;;;;;;;6.90;2.30;;;;;;;31.87;23.30;100036.35;108180;1254;70420;-68
2024/04/14 09:03:21;;;;;;;5.70;2.40;;;;;;;32.06;23.05;100028.86;108152;1254;71480;-67
2024/04/14 09:05:49;;;;;;;4.70;2.30;;;;;;;32.34;22.70;100028.56;108098;1254;60479;-68
2024/04/14 09:08:16;;;;;;;4.30;2.20;;;;;;;32.62;22.50;100014.45;108133;1254;60456;-68
2024/04/14 09:10:43;;;;;;;4.80;2.30;;;;;;;32.65;22.01;100015.34;108126;1253;74638;-67
2024/04/14 09:13:13;;;;;;;3.00;2.00;;;;;;;32.76;22.07;100006.91;108145;1255;70802;-68
2024/04/14 09:15:43;;;;;;;6.80;2.00;;;;;;;32.83;21.87;100004.67;108067;1253;72040;-68
2024/04/14 09:18:10;;;;;;;6.90;1.90;;;;;;;32.93;22.01;100003.20;108065;1252;61147;-67
2024/04/14 09:20:37;;;;;;;5.20;2.50;;;;;;;33.27;21.85;99993.74;108115;1254;61087;-67
2024/04/14 09:23:05;;;;;;;2.80;1.70;;;;;;;33.57;21.48;99988.45;108108;1256;67190;-67
2024/04/14 09:25:35;;;;;;;3.60;1.80;;;;;;;33.52;21.31;99986.29;108120;1254;68990;-67
2024/04/14 09:28:03;;;;;;;4.60;2.00;;;;;;;33.48;21.62;99981.29;108128;1254;65887;-67
2024/04/14 09:30:30;;;;;;;3.70;2.00;;;;;;;33.38;21.49;99981.20;108111;1256;59138;-67
2024/04/14 09:32:58;;;;;;;4.70;2.60;;;;;;;33.36;21.25;99978.14;108168;1252;61508;-67
2024/04/14 09:35:25;;;;;;;5.20;2.20;;;;;;;33.05;21.54;99971.29;108164;1251;76170;-68
2024/04/14 09:37:53;;;;;;;4.10;2.30;;;;;;;32.63;21.81;99970.99;108168;1251;61909;-67
2024/04/14 09:40:22;;;;;;;4.00;2.00;;;;;;;32.32;22.35;99968.42;108011;1251;72740;-67
2024/04/14 09:42:50;;;;;;;5.80;3.50;;;;;;;32.10;22.79;99966.38;108129;1254;61211;-67
2024/04/14 09:45:17;;;;;;;5.80;3.60;;;;;;;32.28;22.65;99963.84;108116;1251;61146;-68
2024/04/14 09:47:45;;;;;;;8.60;2.90;;;;;;;32.61;22.32;99959.63;108129;1251;74656;-68
2024/04/14 09:50:12;;;;;;;5.00;3.00;;;;;;;32.55;22.56;99953.36;108052;1251;71902;-67
2024/04/14 09:52:39;;;;;;;7.40;3.20;;;;;;;32.87;22.47;99943.63;108132;1254;71442;-67
2024/04/14 09:55:07;;;;;;;7.50;3.80;;;;;;;32.88;22.38;99945.36;107909;1251;61083;-67
2024/04/14 09:57:34;;;;;;;15.60;5.00;;;;;;;32.81;22.47;99940.81;108141;1251;61150;-67
2024/04/14 10:00:02;;;;;;;7.30;3.90;;;;;;;32.74;22.43;99935.39;108169;1251;73952;-67
2024/04/14 10:02:32;;;;;;;6.70;4.00;;;;;;;32.90;22.48;99931.94;108209;1251;70399;-67
2024/04/14 10:05:00;;;;;;;7.70;4.00;;;;;;;33.17;22.26;99920.40;108248;1251;73070;-67
2024/04/14 10:07:27;;;;;;;5.40;3.10;;;;;;;33.43;22.44;99921.84;108227;1251;61119;-68
2024/04/14 10:09:55;;;;;;;7.40;3.90;;;;;;;33.24;22.21;99927.13;108221;1251;62011;-68
2024/04/14 10:12:23;;;;;;;8.40;4.20;;;;;;;33.28;22.05;99926.45;108182;1254;67011;-67
2024/04/14 10:14:51;;;;;;;5.50;3.30;;;;;;;32.77;22.77;99920.48;108171;1251;61693;-67
2024/04/14 10:17:18;;;;;;;7.00;4.20;;;;;;;32.88;22.75;99910.67;108107;1251;72370;-68
2024/04/14 10:20:13;;;;;;;8.60;4.00;;;;;;;32.72;22.75;99910.52;108070;1253;61236;-68
2024/04/14 10:22:41;;;;;;;7.00;3.50;;;;;;;32.50;22.97;99904.19;108180;1251;61202;-67
2024/04/14 10:25:22;;;;;;;8.60;4.10;;;;;;;32.50;22.99;99897.91;108128;1251;73838;-67
2024/04/14 10:27:49;;;;;;;4.50;3.60;;;;;;;32.36;23.34;99891.89;108159;1251;70429;-68
2024/04/14 10:30:21;;;;;;;9.50;3.40;;;;;;;31.89;23.58;99897.06;108149;1256;73291;-68
2024/04/14 10:33:03;;;;;;;6.40;4.30;;;;;;;31.23;24.27;99888.21;108237;1252;61371;-67
2024/04/14 10:35:30;;;;;;;5.70;3.90;;;;;;;30.51;25.27;99889.08;108225;1251;60275;-68
2024/04/14 10:37:57;;;;;;;8.60;4.30;;;;;;;30.54;25.43;99880.41;108223;1251;75696;-68
2024/04/14 10:40:25;;;;;;;9.30;4.50;;;;;;;30.50;25.32;99870.96;108211;1256;70410;-67
2024/04/14 10:42:52;;;;;;;7.80;4.10;;;;;;;30.83;25.16;99861.30;108171;1253;71466;-68
2024/04/14 10:45:27;;;;;;;10.60;4.10;;;;;;;31.14;24.84;99859.12;108191;1254;60971;-68
2024/04/14 10:47:58;;;;;;;10.60;3.80;;;;;;;31.06;25.01;99850.10;108194;1251;60237;-68
2024/04/14 10:50:28;;;;;;;12.60;3.90;;;;;;;31.06;24.98;99844.04;108182;1256;74150;-68
2024/04/14 10:52:56;;;;;;;8.60;4.40;;;;;;;30.91;25.27;99839.98;108170;1251;70797;-67
2024/04/14 10:55:24;;;;;;;11.50;4.10;;;;;;;30.40;25.52;99833.11;107990;1251;71120;-67
2024/04/14 10:57:52;;;;;;;10.50;4.70;;;;;;;30.66;25.27;99829.23;108231;1254;61211;-68
2024/04/14 11:00:19;;;;;;;8.60;4.20;;;;;;;31.07;24.60;99827.09;108083;1251;61002;-67
2024/04/14 11:02:47;;;;;;;6.10;3.70;;;;;;;31.12;24.96;99821.44;108271;1251;74720;-68
2024/04/14 11:05:15;;;;;;;8.40;4.70;;;;;;;31.33;24.57;99807.36;108217;1251;70726;-68
2024/04/14 11:07:43;;;;;;;10.50;4.20;;;;;;;31.09;24.81;99801.75;108084;1254;72739;-67
2024/04/14 11:10:10;;;;;;;9.20;3.80;;;;;;;30.57;25.02;99792.08;108108;1251;61164;-69
2024/04/14 11:12:39;;;;;;;8.10;4.60;;;;;;;30.94;24.81;99791.69;108264;1251;61190;-67
2024/04/14 11:15:07;;;;;;;11.80;4.00;;;;;;;31.33;24.43;99789.12;108222;1251;74739;-68
2024/04/14 11:17:38;;;;;;;9.50;4.20;;;;;;;31.41;24.00;99784.53;108218;1251;71289;-67
2024/04/14 11:20:06;;;;;;;10.80;4.10;;;;;;;31.51;23.98;99780.90;108169;1252;73569;-68
2024/04/14 11:22:34;;;;;;;10.60;4.20;;;;;;;31.42;24.01;99784.23;108175;1251;61330;-68